Track Логвинчук Евгений

Time Latitude Longitude Accuracy (66% radius in meters) Altitude (meters) Speed (km/hour) Bearing (degrees) Battery (%) GPS flag
11:47:53 60.371054 29.556183 0 0 0 0 1 delete
11:47:42 60.371062 29.556221 0 0 0 0 1 delete
11:47:40 60.371079 29.556229 0 0 0 0 1 delete
11:47:37 60.371104 29.556240 0 0 0 0 1 delete
11:47:30 60.371123 29.556240 0 0 0 0 1 delete
11:47:28 60.371147 29.556256 0 0 0 0 1 delete
11:47:22 60.371232 29.556335 0 0 0 0 1 delete
11:47:17 60.371319 29.556424 0 0 0 0 1 delete
11:47:14 60.371413 29.556498 0 0 0 0 1 delete
11:47:12 60.371512 29.556533 0 0 0 0 1 delete
11:47:09 60.371639 29.556595 0 0 0 0 1 delete
11:47:07 60.371739 29.556462 0 0 0 0 1 delete
11:47:05 60.371836 29.556315 0 0 0 0 1 delete
11:47:03 60.371975 29.556234 0 0 0 0 1 delete
11:47:01 60.372075 29.556216 0 0 0 0 1 delete
11:46:59 60.372164 29.556267 0 0 0 0 1 delete
11:46:56 60.372273 29.556311 0 0 0 0 1 delete
11:46:53 60.372391 29.556365 0 0 0 0 1 delete
11:46:50 60.372512 29.556441 0 0 0 0 1 delete
11:46:48 60.372605 29.556510 0 0 0 0 1 delete
11:46:45 60.372715 29.556573 0 0 0 0 1 delete
11:46:42 60.372835 29.556567 0 0 0 0 1 delete
11:46:41 60.372930 29.556562 0 0 0 0 1 delete
11:46:40 60.373054 29.556545 0 0 0 0 1 delete
11:46:39 60.373170 29.556667 0 0 0 0 1 delete
11:46:38 60.373280 29.556830 0 0 0 0 1 delete
11:46:31 60.373492 29.557027 0 0 0 0 1 delete
11:46:27 60.373594 29.557116 0 0 0 0 1 delete
11:46:24 60.373707 29.557146 0 0 0 0 1 delete
11:46:21 60.373828 29.557198 0 0 0 0 1 delete
11:46:18 60.373928 29.557317 0 0 0 0 1 delete
11:46:12 60.373934 29.557504 0 0 0 0 1 delete
11:46:09 60.373837 29.557694 0 0 0 0 1 delete
11:46:06 60.373768 29.557832 0 0 0 0 1 delete
11:46:03 60.373697 29.557995 0 0 0 0 1 delete
11:46:00 60.373659 29.558203 0 0 0 0 1 delete
11:45:57 60.373626 29.558414 0 0 0 0 1 delete
11:45:54 60.373690 29.558616 0 0 0 0 1 delete
11:45:51 60.373806 29.558738 0 0 0 0 1 delete
11:45:48 60.373908 29.558886 0 0 0 0 1 delete
11:45:44 60.374008 29.559006 0 0 0 0 1 delete
11:45:38 60.374102 29.559070 0 0 0 0 1 delete
11:45:34 60.374196 29.559146 0 0 0 0 1 delete
11:45:29 60.374289 29.559266 0 0 0 0 1 delete
11:45:26 60.374343 29.559452 0 0 0 0 1 delete
11:45:23 60.374414 29.559648 0 0 0 0 1 delete
11:45:21 60.374475 29.559806 0 0 0 0 1 delete
11:45:19 60.374524 29.559968 0 0 0 0 1 delete
11:45:17 60.374550 29.560171 0 0 0 0 1 delete
11:45:14 60.374592 29.560385 0 0 0 0 1 delete